S 386 Casilo — OZZP — position and weather

sailwx.info

Track history (hours):
 
Tides and Currents Weather Stations Pressure Air Temp Water Temp Dewpoint Dewpoint Depression Visibility Wind Speed Wind Dir Waves Ship Positions

S 386 Casilo

Last reported at 2015-Aug-04 02:34 UTC. Time now 2015-Aug-04 03:20 UTC.
Position N 58°06' E 009°56'.

Length 24 m.

Type: Fishing. MMSI: 219948000.

Date/timePositionNaut miles runAvg speedWind from/ knotsBaromVisibWave heightAir tempDewpointWater temp
2015-Aug-04 02:34N 58°06' E 009°56'9 8.9
2015-Aug-04 01:32N 58°09' E 010°12'7 7.0
2015-Aug-04 00:34N 58°13' E 010°23'1 1.3
2015-Aug-03 23:34N 58°13' E 010°21'2 2.0
2015-Aug-03 22:34N 58°12' E 010°17'2 2.0
2015-Aug-03 21:34N 58°11' E 010°14'2 2.1
2015-Aug-03 20:34N 58°11' E 010°10'2 2.1
2015-Aug-03 19:33N 58°10' E 010°06'2 2.2
2015-Aug-03 18:34N 58°09' E 010°03'2 2.2
2015-Aug-03 17:33N 58°07' E 009°59'2 2.1
2015-Aug-03 16:34N 58°06' E 009°56'2 2.1
2015-Aug-03 15:33N 58°05' E 009°52'2 2.1
2015-Aug-03 14:33N 58°04' E 009°49'2 2.1
2015-Aug-03 13:27N 58°03' E 009°45'19 6.0
2015-Aug-03 10:17N 58°08' E 010°20'7 8.6
2015-Aug-03 09:32N 58°11' E 010°31'9 8.7
2015-Aug-03 08:33N 58°14' E 010°46'9 8.9
2015-Aug-03 07:34N 58°18' E 011°02'7 7.3
2015-Aug-03 06:34N 58°21' E 011°14'0 0.0
2015-Aug-03 05:34N 58°21' E 011°14'0 0.0
2015-Aug-03 04:34N 58°21' E 011°14'7 6.6
2015-Aug-03 03:34N 58°19' E 011°02'9 9.0
2015-Aug-03 02:34N 58°16' E 010°46'9 9.1
2015-Aug-03 01:33N 58°13' E 010°29'5 4.4
2015-Aug-03 00:31N 58°12' E 010°20'2 2.0
2015-Aug-02 23:34N 58°11' E 010°17'2 2.1
2015-Aug-02 22:34N 58°11' E 010°13'2 2.0
2015-Aug-02 21:33N 58°10' E 010°10'2 2.1
2015-Aug-02 20:33N 58°09' E 010°06'5 2.1
2015-Aug-02 18:08N 58°07' E 009°58'3 1.7
2015-Aug-02 16:33N 58°06' E 009°53'24 1.7
2015-Aug-02 02:19N 57°54' E 009°13'2 2.2
2015-Aug-02 01:32N 57°53' E 009°10'28 0.6
2015-Jul-30 22:23N 57°44' E 010°00'6 7.5
2015-Jul-30 21:33N 57°45' E 010°12'8 8.0
2015-Jul-30 20:33N 57°46' E 010°27'8 7.8
2015-Jul-30 19:33N 57°46' E 010°41'4 4.2
2015-Jul-30 18:33N 57°43' E 010°36'0 0.0
2015-Jul-30 17:33N 57°43' E 010°36'0 0.0
2015-Jul-30 16:33N 57°43' E 010°36'0 0.0
2015-Jul-30 15:18N 57°43' E 010°36'0 0.0
2015-Jul-30 14:33N 57°43' E 010°36'0 0.1
2015-Jul-30 12:28N 57°43' E 010°36'23 3.4
2015-Jul-30 05:32N 57°51' E 009°55'10 9.8
2015-Jul-30 04:33N 57°53' E 009°37'39 2.6
2015-Jul-29 13:31N 57°42' E 008°27'  
2015-Jul-27 08:33N 58°09' E 010°28'8 7.9
2015-Jul-27 07:33N 58°13' E 010°42'8 7.5
2015-Jul-27 06:33N 58°16' E 010°55'7 7.2
2015-Jul-27 05:33N 58°18' E 011°08'4 4.2
2015-Jul-27 04:32N 58°21' E 011°14'2 2.2
2015-Jul-27 03:33N 58°19' E 011°12'9 8.7
2015-Jul-27 02:33N 58°16' E 010°57'9 8.0
2015-Jul-27 01:25N 58°13' E 010°40'7 8.2
2015-Jul-27 00:33N 58°11' E 010°28'  
Track history (hours):
 
Tides and Currents Weather Stations Pressure Air Temp Water Temp Dewpoint Dewpoint Depression Visibility Wind Speed Wind Dir Waves Ship Positions

S 386 Casilo

Last reported at 2015-Aug-04 02:34 UTC. Time now 2015-Aug-04 03:20 UTC.
Position N 58°06' E 009°56'.

Length 24 m.

Type: Fishing. MMSI: 219948000.

Date/timePositionNaut miles runAvg speedWind from/ knotsBaromVisibWave heightAir tempDewpointWater temp
2015-Aug-04 02:34N 58°06' E 009°56'9 8.9
2015-Aug-04 01:32N 58°09' E 010°12'7 7.0
2015-Aug-04 00:34N 58°13' E 010°23'1 1.3
2015-Aug-03 23:34N 58°13' E 010°21'2 2.0
2015-Aug-03 22:34N 58°12' E 010°17'2 2.0
2015-Aug-03 21:34N 58°11' E 010°14'2 2.1
2015-Aug-03 20:34N 58°11' E 010°10'2 2.1
2015-Aug-03 19:33N 58°10' E 010°06'2 2.2
2015-Aug-03 18:34N 58°09' E 010°03'2 2.2
2015-Aug-03 17:33N 58°07' E 009°59'2 2.1
2015-Aug-03 16:34N 58°06' E 009°56'2 2.1
2015-Aug-03 15:33N 58°05' E 009°52'2 2.1
2015-Aug-03 14:33N 58°04' E 009°49'2 2.1
2015-Aug-03 13:27N 58°03' E 009°45'19 6.0
2015-Aug-03 10:17N 58°08' E 010°20'7 8.6
2015-Aug-03 09:32N 58°11' E 010°31'9 8.7
2015-Aug-03 08:33N 58°14' E 010°46'9 8.9
2015-Aug-03 07:34N 58°18' E 011°02'7 7.3
2015-Aug-03 06:34N 58°21' E 011°14'0 0.0
2015-Aug-03 05:34N 58°21' E 011°14'0 0.0
2015-Aug-03 04:34N 58°21' E 011°14'7 6.6
2015-Aug-03 03:34N 58°19' E 011°02'9 9.0
2015-Aug-03 02:34N 58°16' E 010°46'9 9.1
2015-Aug-03 01:33N 58°13' E 010°29'5 4.4
2015-Aug-03 00:31N 58°12' E 010°20'2 2.0
2015-Aug-02 23:34N 58°11' E 010°17'2 2.1
2015-Aug-02 22:34N 58°11' E 010°13'2 2.0
2015-Aug-02 21:33N 58°10' E 010°10'2 2.1
2015-Aug-02 20:33N 58°09' E 010°06'5 2.1
2015-Aug-02 18:08N 58°07' E 009°58'3 1.7
2015-Aug-02 16:33N 58°06' E 009°53'24 1.7
2015-Aug-02 02:19N 57°54' E 009°13'2 2.2
2015-Aug-02 01:32N 57°53' E 009°10'28 0.6
2015-Jul-30 22:23N 57°44' E 010°00'6 7.5
2015-Jul-30 21:33N 57°45' E 010°12'8 8.0
2015-Jul-30 20:33N 57°46' E 010°27'8 7.8
2015-Jul-30 19:33N 57°46' E 010°41'4 4.2
2015-Jul-30 18:33N 57°43' E 010°36'0 0.0
2015-Jul-30 17:33N 57°43' E 010°36'0 0.0
2015-Jul-30 16:33N 57°43' E 010°36'0 0.0
2015-Jul-30 15:18N 57°43' E 010°36'0 0.0
2015-Jul-30 14:33N 57°43' E 010°36'0 0.1
2015-Jul-30 12:28N 57°43' E 010°36'23 3.4
2015-Jul-30 05:32N 57°51' E 009°55'10 9.8
2015-Jul-30 04:33N 57°53' E 009°37'39 2.6
2015-Jul-29 13:31N 57°42' E 008°27'  
2015-Jul-27 08:33N 58°09' E 010°28'8 7.9
2015-Jul-27 07:33N 58°13' E 010°42'8 7.5
2015-Jul-27 06:33N 58°16' E 010°55'7 7.2
2015-Jul-27 05:33N 58°18' E 011°08'4 4.2
2015-Jul-27 04:32N 58°21' E 011°14'2 2.2
2015-Jul-27 03:33N 58°19' E 011°12'9 8.7
2015-Jul-27 02:33N 58°16' E 010°57'9 8.0
2015-Jul-27 01:25N 58°13' E 010°40'7 8.2
2015-Jul-27 00:33N 58°11' E 010°28'  

Dump ship's entire track history